Time;durP1;ratioP1;P1;durP2;ratioP2;P2;SDS_P1;SDS_P2;PMS_P1;PMS_P2;Temp;Humidity;BMP_temperature;BMP_pressure;BME280_temperature;BME280_humidity;BME280_pressure;Samples;Min_cycle;Max_cycle;Signal;HPM_P1;HPM_P2
2023/10/01 00:00:17;;;;;;;14.50;6.03;;;15.40;99.90;;;;;;4989289;28;20869;-73
2023/10/01 00:02:42;;;;;;;14.57;5.80;;;15.30;99.90;;;;;;4989299;28;20419;-73
2023/10/01 00:05:10;;;;;;;13.87;6.07;;;15.40;99.90;;;;;;4989826;28;20779;-73
2023/10/01 00:07:40;;;;;;;15.77;6.40;;;15.30;99.90;;;;;;4972438;28;20918;-73
2023/10/01 00:10:10;;;;;;;13.40;6.47;;;15.20;99.90;;;;;;4988859;28;20492;-83
2023/10/01 00:12:40;;;;;;;16.08;6.68;;;15.20;99.90;;;;;;4968834;28;20413;-83
2023/10/01 00:15:10;;;;;;;15.43;6.60;;;15.30;99.90;;;;;;4983438;28;20488;-83
2023/10/01 00:17:37;;;;;;;15.40;6.63;;;15.10;99.90;;;;;;4991511;28;20519;-82
2023/10/01 00:20:23;;;;;;;16.38;6.82;;;15.30;99.90;;;;;;4989140;28;20419;-83
2023/10/01 00:23:02;;;;;;;14.70;7.10;;;15.30;99.90;;;;;;4988924;28;20498;-83
2023/10/01 00:25:29;;;;;;;16.55;8.27;;;15.40;99.90;;;;;;4999045;28;20429;-82
2023/10/01 00:27:58;;;;;;;13.93;7.68;;;15.40;99.90;;;;;;4975124;28;20472;-83
2023/10/01 00:30:24;;;;;;;21.52;8.75;;;15.30;99.90;;;;;;4996702;28;20586;-83
2023/10/01 00:32:49;;;;;;;18.20;9.48;;;15.10;99.90;;;;;;5006436;28;20916;-83
2023/10/01 00:35:16;;;;;;;17.33;9.20;;;15.00;99.90;;;;;;5008413;28;20479;-83
2023/10/01 00:37:42;;;;;;;17.38;9.05;;;15.20;99.90;;;;;;4981735;28;20467;-83
2023/10/01 00:40:10;;;;;;;17.88;9.45;;;15.10;99.90;;;;;;5006906;28;20842;-83
2023/10/01 00:42:37;;;;;;;23.15;9.75;;;15.70;99.90;;;;;;4976853;28;20424;-83
2023/10/01 00:45:07;;;;;;;16.33;9.57;;;15.30;99.90;;;;;;4988648;28;20459;-83
2023/10/01 00:47:35;;;;;;;17.92;9.40;;;15.10;99.90;;;;;;4992548;28;20527;-83
2023/10/01 00:50:01;;;;;;;22.70;9.82;;;15.30;99.90;;;;;;4972246;28;20410;-83
2023/10/01 00:52:28;;;;;;;18.45;10.05;;;15.00;99.90;;;;;;5000286;28;20456;-83
2023/10/01 00:54:55;;;;;;;19.05;10.73;;;15.10;99.90;;;;;;4988626;28;20410;-83
2023/10/01 00:57:21;;;;;;;18.77;10.20;;;15.10;99.90;;;;;;4993285;28;20492;-83
2023/10/01 00:59:48;;;;;;;25.38;11.07;;;14.80;99.90;;;;;;4996856;28;20986;-83
2023/10/01 01:02:17;;;;;;;19.70;10.20;;;14.90;99.90;;;;;;5006777;28;20436;-83
2023/10/01 01:04:45;;;;;;;20.70;10.60;;;15.00;99.90;;;;;;4985012;28;20432;-82
2023/10/01 01:07:15;;;;;;;21.17;10.85;;;15.00;99.90;;;;;;4976267;28;20405;-82
2023/10/01 01:09:45;;;;;;;24.33;10.95;;;14.70;99.90;;;;;;4989302;28;20459;-82
2023/10/01 01:12:12;;;;;;;17.52;10.32;;;14.90;99.90;;;;;;5005203;28;20494;-83
2023/10/01 01:14:39;;;;;;;18.85;10.57;;;14.90;99.90;;;;;;4963495;28;20482;-83
2023/10/01 01:17:05;;;;;;;22.63;11.38;;;14.90;99.90;;;;;;4971898;28;20427;-82
2023/10/01 01:19:34;;;;;;;19.13;11.23;;;14.90;99.90;;;;;;4971430;28;20446;-83
2023/10/01 01:22:02;;;;;;;20.17;10.80;;;14.90;99.90;;;;;;4975081;28;20413;-83
2023/10/01 01:24:31;;;;;;;18.03;11.57;;;14.70;99.90;;;;;;4993510;28;20444;-82
2023/10/01 01:27:00;;;;;;;19.38;11.55;;;14.90;99.90;;;;;;4993159;28;20413;-82
2023/10/01 01:29:34;;;;;;;19.75;10.95;;;14.80;99.90;;;;;;4972057;28;20487;-83
2023/10/01 01:32:25;;;;;;;23.80;12.10;;;14.70;99.90;;;;;;4957744;28;20421;-82
2023/10/01 01:34:52;;;;;;;24.65;12.18;;;14.80;99.90;;;;;;4981944;28;20513;-82
2023/10/01 01:38:04;;;;;;;24.08;11.68;;;14.70;99.90;;;;;;4999427;28;20444;-82
2023/10/01 01:40:23;;;;;;;21.30;12.10;;;14.70;99.90;;;;;;4987046;28;20898;-82
2023/10/01 01:42:48;;;;;;;20.05;12.02;;;14.70;99.90;;;;;;4992553;28;20499;-82
2023/10/01 01:45:25;;;;;;;19.03;11.97;;;14.70;99.90;;;;;;4976617;28;20462;-82
2023/10/01 01:47:51;;;;;;;21.42;12.52;;;14.70;99.90;;;;;;5001899;28;20407;-82
2023/10/01 01:50:21;;;;;;;19.10;11.93;;;14.80;99.90;;;;;;4986057;28;20992;-82
2023/10/01 01:52:49;;;;;;;21.65;12.00;;;14.80;99.90;;;;;;4993417;28;20916;-82
2023/10/01 01:55:27;;;;;;;23.42;12.38;;;14.80;99.90;;;;;;5001178;28;20738;-81
2023/10/01 01:58:15;;;;;;;21.73;12.13;;;14.60;99.90;;;;;;4960000;28;20448;-82
2023/10/01 02:03:32;;;;;;;20.23;11.63;;;14.80;99.90;;;;;;4991186;28;20450;-82
2023/10/01 02:05:58;;;;;;;25.00;12.45;;;14.80;99.90;;;;;;4991447;28;20439;-82
2023/10/01 02:08:24;;;;;;;24.10;12.80;;;14.80;99.90;;;;;;4963313;28;20912;-82
2023/10/01 02:10:55;;;;;;;19.73;12.43;;;14.80;99.90;;;;;;5009607;28;20405;-82
2023/10/01 02:13:24;;;;;;;23.35;13.40;;;15.00;99.90;;;;;;4991899;28;20410;-82
2023/10/01 02:15:51;;;;;;;21.23;12.57;;;15.20;99.90;;;;;;4975755;28;20467;-82
2023/10/01 02:18:17;;;;;;;21.23;12.50;;;15.10;99.90;;;;;;4996057;28;20444;-82
2023/10/01 02:20:56;;;;;;;19.25;12.35;;;14.80;99.90;;;;;;4999075;28;20428;-81
2023/10/01 02:23:26;;;;;;;23.23;13.38;;;14.90;99.90;;;;;;4994769;28;20437;-81
2023/10/01 02:25:57;;;;;;;21.98;12.35;;;15.00;99.90;;;;;;5009551;28;20433;-81
2023/10/01 02:28:27;;;;;;;19.48;12.40;;;14.80;99.90;;;;;;4984807;28;20406;-82
2023/10/01 02:31:01;;;;;;;21.20;12.18;;;14.80;99.90;;;;;;4992748;28;20408;-82
2023/10/01 02:36:15;;;;;;;17.70;11.93;;;;;;;;;;4990975;28;20422;-82
2023/10/01 02:38:45;;;;;;;21.67;12.60;;;14.80;99.90;;;;;;5005316;28;20416;-82
2023/10/01 02:41:15;;;;;;;20.13;12.25;;;14.90;99.90;;;;;;5000219;28;20419;-81
2023/10/01 02:43:41;;;;;;;20.58;12.35;;;15.00;99.90;;;;;;4978123;28;20409;-83
2023/10/01 02:46:12;;;;;;;20.23;12.48;;;15.00;99.90;;;;;;4986687;28;20498;-83
2023/10/01 02:48:42;;;;;;;18.57;11.80;;;14.90;99.90;;;;;;4993360;28;20417;-82
2023/10/01 02:51:14;;;;;;;20.37;11.90;;;14.90;99.90;;;;;;4995985;28;20469;-82
2023/10/01 02:54:03;;;;;;;19.53;12.07;;;14.90;99.90;;;;;;4980833;28;20423;-82
2023/10/01 02:56:33;;;;;;;18.67;11.80;;;15.00;99.90;;;;;;4980033;28;20434;-83
2023/10/01 02:59:09;;;;;;;19.35;11.38;;;14.80;99.90;;;;;;5005435;28;20777;-82
2023/10/01 03:01:42;;;;;;;20.13;11.13;;;15.00;99.90;;;;;;5005798;28;20766;-81
2023/10/01 03:04:18;;;;;;;20.25;10.95;;;14.90;99.90;;;;;;5001002;28;20420;-83
2023/10/01 03:06:52;;;;;;;20.63;11.50;;;14.90;99.90;;;;;;4976533;28;20497;-81
2023/10/01 03:09:34;;;;;;;16.25;10.45;;;14.70;99.90;;;;;;4975525;28;20409;-83
2023/10/01 03:17:38;;;;;;;18.05;10.80;;;15.00;99.90;;;;;;5006360;28;20913;-83
2023/10/01 03:22:53;;;;;;;17.95;10.85;;;15.10;99.90;;;;;;4992080;28;20416;-83
2023/10/01 03:25:19;;;;;;;19.92;10.82;;;14.90;99.90;;;;;;4990580;28;20447;-83
2023/10/01 03:27:45;;;;;;;20.58;10.80;;;15.00;99.90;;;;;;4990135;28;20419;-83
2023/10/01 03:30:32;;;;;;;18.70;10.57;;;14.80;99.90;;;;;;4973766;28;20421;-84
2023/10/01 03:33:01;;;;;;;22.00;10.50;;;14.80;99.90;;;;;;4986187;28;20833;-83
2023/10/01 03:35:27;;;;;;;17.98;10.20;;;14.90;99.90;;;;;;4985020;28;20415;-83
2023/10/01 03:38:09;;;;;;;18.90;10.35;;;14.80;99.90;;;;;;4973555;28;20418;-83
2023/10/01 03:40:43;;;;;;;16.92;10.02;;;15.10;99.90;;;;;;4973500;28;20431;-83
2023/10/01 03:43:15;;;;;;;18.15;9.98;;;15.00;99.90;;;;;;4991500;28;20449;-83
2023/10/01 03:45:54;;;;;;;19.23;10.05;;;14.90;99.90;;;;;;5002805;28;20438;-83
2023/10/01 03:48:20;;;;;;;17.02;10.55;;;15.10;99.90;;;;;;4973007;28;20413;-83
2023/10/01 03:50:46;;;;;;;17.70;10.75;;;14.90;99.90;;;;;;5006150;28;20428;-84
2023/10/01 03:53:12;;;;;;;18.23;10.37;;;14.80;99.90;;;;;;5002631;28;20488;-84
2023/10/01 03:55:40;;;;;;;15.40;9.97;;;14.90;99.90;;;;;;5000874;28;20428;-83
2023/10/01 03:58:08;;;;;;;20.77;11.05;;;15.00;99.90;;;;;;5066684;28;20498;-82
2023/10/01 04:00:41;;;;;;;19.52;10.30;;;14.90;99.90;;;;;;4992446;28;20445;-82
2023/10/01 04:03:16;;;;;;;15.68;9.70;;;14.80;99.90;;;;;;4993002;28;20850;-82
2023/10/01 04:05:46;;;;;;;17.75;10.15;;;15.10;99.90;;;;;;4991306;28;20433;-83
2023/10/01 04:08:12;;;;;;;18.25;10.57;;;15.00;99.90;;;;;;5005871;28;20820;-83
2023/10/01 04:10:39;;;;;;;15.05;9.85;;;15.10;99.90;;;;;;4989732;28;20465;-82
2023/10/01 04:13:12;;;;;;;19.92;9.93;;;15.00;99.90;;;;;;4994682;28;20463;-82
2023/10/01 04:15:55;;;;;;;17.30;9.27;;;14.70;99.90;;;;;;4991797;28;20421;-74
2023/10/01 04:18:23;;;;;;;20.07;10.53;;;14.90;99.90;;;;;;5003883;28;21025;-74
2023/10/01 04:23:32;;;;;;;14.70;9.52;;;15.00;99.90;;;;;;5003128;28;20420;-73
2023/10/01 04:26:08;;;;;;;16.87;10.13;;;15.00;99.90;;;;;;4975827;28;20512;-73
2023/10/01 04:28:44;;;;;;;14.90;9.75;;;14.90;99.90;;;;;;4973711;28;20418;-73
2023/10/01 04:31:14;;;;;;;17.63;10.05;;;15.00;99.90;;;;;;5008232;28;20923;-73
2023/10/01 04:33:43;;;;;;;16.48;9.65;;;14.90;99.90;;;;;;4989742;28;20828;-74
2023/10/01 04:36:16;;;;;;;15.30;9.90;;;14.80;99.90;;;;;;5001329;28;20421;-73
2023/10/01 04:38:48;;;;;;;16.17;9.00;;;15.00;99.90;;;;;;5000294;28;20512;-74
2023/10/01 04:41:18;;;;;;;18.05;9.48;;;15.10;99.90;;;;;;4972496;28;20484;-73
2023/10/01 04:43:51;;;;;;;16.20;9.85;;;15.00;99.90;;;;;;4989284;28;20418;-74
2023/10/01 04:46:21;;;;;;;17.98;8.77;;;15.20;99.90;;;;;;4972234;28;20439;-73
2023/10/01 04:48:47;;;;;;;16.75;9.50;;;15.00;99.90;;;;;;4980571;28;20410;-73
2023/10/01 04:51:13;;;;;;;15.63;9.13;;;15.20;99.90;;;;;;4989991;28;20777;-73
2023/10/01 04:53:46;;;;;;;15.90;9.20;;;15.10;99.90;;;;;;4958952;28;20421;-74
2023/10/01 04:56:20;;;;;;;16.50;9.13;;;15.10;99.90;;;;;;4989805;28;20411;-74
2023/10/01 04:58:51;;;;;;;14.48;8.50;;;14.90;99.90;;;;;;4979100;28;20906;-74
2023/10/01 05:01:18;;;;;;;18.40;8.88;;;15.00;99.90;;;;;;4974286;28;20414;-73
2023/10/01 05:03:48;;;;;;;16.33;9.23;;;15.10;99.90;;;;;;4986616;28;20426;-73
2023/10/01 05:06:18;;;;;;;14.25;8.90;;;15.00;99.90;;;;;;4979660;28;20456;-73
2023/10/01 05:08:44;;;;;;;16.75;9.07;;;15.10;99.90;;;;;;5002554;28;20413;-73
2023/10/01 05:11:16;;;;;;;15.85;8.90;;;15.00;99.90;;;;;;4991378;28;20924;-82
2023/10/01 05:13:47;;;;;;;13.57;8.55;;;15.00;99.90;;;;;;4972714;28;20414;-82
2023/10/01 05:16:15;;;;;;;15.40;8.85;;;15.20;99.90;;;;;;4992235;28;20423;-82
2023/10/01 05:18:48;;;;;;;18.58;8.98;;;15.00;99.90;;;;;;4988904;28;20610;-83
2023/10/01 05:21:21;;;;;;;18.27;8.93;;;15.00;99.90;;;;;;4976091;28;20413;-83
2023/10/01 05:23:47;;;;;;;16.83;8.80;;;15.20;99.90;;;;;;4996448;28;20433;-82
2023/10/01 05:26:20;;;;;;;15.47;9.27;;;14.70;99.90;;;;;;4997347;28;20434;-82
2023/10/01 05:28:48;;;;;;;16.27;9.50;;;14.70;99.90;;;;;;4972322;28;20407;-83
2023/10/01 05:31:24;;;;;;;15.05;8.90;;;14.80;99.90;;;;;;4974873;28;20411;-83
2023/10/01 05:33:52;;;;;;;19.20;9.60;;;14.80;99.90;;;;;;5008044;28;20904;-83
2023/10/01 05:36:18;;;;;;;18.88;10.00;;;14.70;99.90;;;;;;4994592;28;20489;-82
2023/10/01 05:38:45;;;;;;;18.88;9.13;;;14.60;99.90;;;;;;5021195;28;20758;-82
2023/10/01 05:41:15;;;;;;;17.67;9.45;;;14.60;99.90;;;;;;4988317;28;20431;-82
2023/10/01 05:43:50;;;;;;;18.42;8.93;;;14.50;99.90;;;;;;4972243;28;20426;-83
2023/10/01 05:46:22;;;;;;;16.95;8.90;;;14.60;99.90;;;;;;4972038;28;20466;-82
2023/10/01 05:48:55;;;;;;;18.08;9.20;;;;;;;;;;4998606;28;20927;-83
2023/10/01 05:51:30;;;;;;;18.77;9.65;;;14.70;99.90;;;;;;4998246;28;20510;-82
2023/10/01 05:53:56;;;;;;;18.67;9.45;;;14.70;99.90;;;;;;4990206;28;20414;-81
2023/10/01 05:56:24;;;;;;;17.70;9.60;;;14.50;99.90;;;;;;5003163;28;20412;-82
2023/10/01 05:58:50;;;;;;;16.30;9.20;;;14.70;99.90;;;;;;5007099;28;20417;-82
2023/10/01 06:01:17;;;;;;;19.38;9.38;;;14.60;99.90;;;;;;4976556;28;20433;-82
2023/10/01 06:03:44;;;;;;;17.48;9.50;;;14.60;99.90;;;;;;4977824;28;20781;-83
2023/10/01 06:06:14;;;;;;;18.42;9.75;;;14.80;99.90;;;;;;5001038;28;20430;-82
2023/10/01 06:08:58;;;;;;;15.18;9.38;;;14.70;99.90;;;;;;4991471;28;20413;-82
2023/10/01 06:11:38;;;;;;;16.50;9.20;;;14.70;99.90;;;;;;5017425;28;20414;-82
2023/10/01 06:14:05;;;;;;;18.85;9.27;;;14.70;99.90;;;;;;4991976;28;20409;-83
2023/10/01 06:16:37;;;;;;;21.30;10.00;;;14.50;99.90;;;;;;5006623;28;20450;-83
2023/10/01 06:19:03;;;;;;;16.60;9.10;;;14.70;99.90;;;;;;5011688;28;20519;-83
2023/10/01 06:21:31;;;;;;;18.30;9.65;;;14.60;99.90;;;;;;4994317;28;20417;-83
2023/10/01 06:23:58;;;;;;;17.02;9.30;;;14.70;99.90;;;;;;4972164;28;20741;-82
2023/10/01 06:29:13;;;;;;;18.00;8.98;;;14.50;99.90;;;;;;5015938;28;20933;-72
2023/10/01 06:31:48;;;;;;;18.67;9.52;;;14.80;99.90;;;;;;4969367;28;20406;-73
2023/10/01 06:34:21;;;;;;;17.05;9.10;;;14.80;99.90;;;;;;4982977;28;20426;-72
2023/10/01 06:36:55;;;;;;;17.67;9.52;;;14.90;99.90;;;;;;4996730;28;20405;-72
2023/10/01 06:39:23;;;;;;;19.85;10.13;;;14.80;99.90;;;;;;4990407;28;20479;-72
2023/10/01 06:41:49;;;;;;;18.10;9.63;;;14.80;99.90;;;;;;4978935;28;20423;-72
2023/10/01 06:44:16;;;;;;;17.80;9.40;;;14.80;99.90;;;;;;4995483;28;20878;-72
2023/10/01 06:46:42;;;;;;;17.65;9.40;;;14.90;99.90;;;;;;4997194;28;20533;-72
2023/10/01 06:49:10;;;;;;;19.05;9.00;;;14.90;99.90;;;;;;4976726;28;20437;-72
2023/10/01 06:51:45;;;;;;;15.95;9.00;;;15.10;99.90;;;;;;4998469;28;20406;-73
2023/10/01 06:54:12;;;;;;;18.30;8.25;;;15.10;99.90;;;;;;4975104;28;20747;-72
2023/10/01 06:56:44;;;;;;;14.40;8.50;;;14.90;99.90;;;;;;5003480;28;20813;-73
2023/10/01 07:01:47;;;;;;;19.00;9.02;;;15.00;99.90;;;;;;4994460;28;20418;-73
2023/10/01 07:04:15;;;;;;;16.45;8.68;;;15.20;99.90;;;;;;4997473;28;20429;-73
2023/10/01 07:06:44;;;;;;;18.83;8.67;;;15.20;99.90;;;;;;5001373;28;20782;-73
2023/10/01 07:12:09;;;;;;;18.35;8.82;;;15.20;99.90;;;;;;4989486;28;20413;-73
2023/10/01 07:14:43;;;;;;;18.65;8.43;;;;;;;;;;4979357;28;20469;-74
2023/10/01 07:17:14;;;;;;;16.15;8.60;;;15.10;99.90;;;;;;4997160;28;20425;-72
2023/10/01 07:19:45;;;;;;;19.13;8.48;;;15.20;99.90;;;;;;4970432;28;20429;-73
2023/10/01 07:22:14;;;;;;;16.80;8.13;;;15.40;99.90;;;;;;4993159;28;20397;-73
2023/10/01 07:24:40;;;;;;;16.45;8.43;;;15.10;99.90;;;;;;4990164;28;20508;-73
2023/10/01 07:27:07;;;;;;;16.23;8.07;;;15.20;99.90;;;;;;4975995;28;20485;-73
2023/10/01 07:29:34;;;;;;;16.23;8.27;;;15.40;99.90;;;;;;4999358;28;20405;-73
2023/10/01 07:32:12;;;;;;;16.45;8.13;;;15.40;99.90;;;;;;4973360;28;20442;-73
2023/10/01 07:34:53;;;;;;;15.10;8.50;;;15.30;99.90;;;;;;4970998;28;20419;-74
2023/10/01 07:37:25;;;;;;;13.57;7.72;;;15.30;99.90;;;;;;4989361;28;20809;-74
2023/10/01 07:40:09;;;;;;;16.48;8.35;;;15.40;99.90;;;;;;5002131;28;20436;-70
2023/10/01 07:42:46;;;;;;;18.25;7.65;;;15.40;99.90;;;;;;4977511;28;20436;-73
2023/10/01 07:45:23;;;;;;;15.32;8.05;;;15.60;99.90;;;;;;4996998;28;20437;-73
2023/10/01 07:47:49;;;;;;;19.63;7.90;;;15.70;99.90;;;;;;4963907;28;20421;-73
2023/10/01 07:50:16;;;;;;;16.42;7.72;;;15.50;99.90;;;;;;4996397;28;20461;-73
2023/10/01 07:52:44;;;;;;;20.67;8.27;;;15.50;99.90;;;;;;4980237;28;20485;-73
2023/10/01 07:55:29;;;;;;;17.90;8.35;;;15.80;99.90;;;;;;5006679;28;20419;-73
2023/10/01 07:58:23;;;;;;;16.92;8.40;;;15.60;99.90;;;;;;5001797;28;20475;-73
2023/10/01 08:00:58;;;;;;;17.75;7.60;;;15.70;99.90;;;;;;4995660;28;20426;-73
2023/10/01 08:06:05;;;;;;;14.85;7.20;;;15.60;99.90;;;;;;5000942;28;20421;-73
2023/10/01 08:08:37;;;;;;;14.73;7.70;;;15.70;99.90;;;;;;4974106;28;20420;-72
2023/10/01 08:13:58;;;;;;;17.63;7.82;;;15.60;99.90;;;;;;4977829;28;20470;-73
2023/10/01 08:16:24;;;;;;;17.75;8.10;;;15.70;99.90;;;;;;5008723;28;20412;-73
2023/10/01 08:18:57;;;;;;;16.03;7.87;;;15.60;99.90;;;;;;5004527;28;20511;-73
2023/10/01 08:21:36;;;;;;;15.33;7.77;;;15.90;99.90;;;;;;5002844;28;20428;-73
2023/10/01 08:24:09;;;;;;;16.67;7.57;;;16.00;99.90;;;;;;5001743;28;20410;-73
2023/10/01 08:26:49;;;;;;;16.70;7.72;;;16.10;99.90;;;;;;5001963;28;20441;-73
2023/10/01 08:29:15;;;;;;;16.90;8.02;;;16.10;99.90;;;;;;4990780;28;20428;-74
2023/10/01 08:34:24;;;;;;;16.30;7.78;;;16.30;99.90;;;;;;5002274;28;20933;-73
2023/10/01 08:36:58;;;;;;;15.95;7.90;;;16.50;99.90;;;;;;4988569;28;20468;-73
2023/10/01 08:39:34;;;;;;;17.00;7.40;;;16.40;99.90;;;;;;4989114;28;20427;-73
2023/10/01 08:42:14;;;;;;;15.70;8.00;;;16.40;99.90;;;;;;4993334;28;20403;-73
2023/10/01 08:44:54;;;;;;;19.40;7.63;;;16.60;99.90;;;;;;4988323;28;20446;-73
2023/10/01 08:47:31;;;;;;;16.90;7.35;;;16.60;99.90;;;;;;4995452;28;20414;-73
2023/10/01 08:52:56;;;;;;;17.25;7.70;;;17.20;99.90;;;;;;4974338;28;20414;-73
2023/10/01 08:55:40;;;;;;;15.48;7.35;;;17.20;99.90;;;;;;4972504;28;20480;-73
2023/10/01 09:00:49;;;;;;;16.83;7.87;;;17.50;99.90;;;;;;4988093;28;20417;-75
2023/10/01 09:03:28;;;;;;;16.67;7.30;;;17.80;99.90;;;;;;4989357;28;20982;-75
2023/10/01 09:06:06;;;;;;;14.43;6.72;;;18.00;99.90;;;;;;4992490;28;20434;-73
2023/10/01 09:08:32;;;;;;;17.50;7.45;;;18.20;99.90;;;;;;4978432;28;20583;-74
2023/10/01 09:11:13;;;;;;;18.87;7.07;;;18.20;99.90;;;;;;4977153;28;20426;-74
2023/10/01 09:13:44;;;;;;;15.30;7.00;;;18.50;99.90;;;;;;4994341;28;20413;-74
2023/10/01 09:16:11;;;;;;;14.90;6.78;;;18.60;99.90;;;;;;4989666;28;20429;-74
2023/10/01 09:18:53;;;;;;;15.75;7.30;;;18.80;99.90;;;;;;4978212;28;20450;-74
2023/10/01 09:21:28;;;;;;;19.20;7.73;;;18.80;99.90;;;;;;4995132;28;20453;-74
2023/10/01 09:23:58;;;;;;;16.48;7.32;;;18.80;99.90;;;;;;4979384;28;20466;-74
2023/10/01 09:26:41;;;;;;;13.80;7.03;;;18.90;99.90;;;;;;4997250;28;20428;-74
2023/10/01 09:29:21;;;;;;;14.98;7.30;;;19.00;99.90;;;;;;4986807;28;20427;-74
2023/10/01 09:31:58;;;;;;;14.95;7.45;;;19.00;99.90;;;;;;4971267;28;20410;-74
2023/10/01 09:34:31;;;;;;;15.25;7.43;;;19.00;99.90;;;;;;4991847;28;20409;-74
2023/10/01 09:37:35;;;;;;;15.07;7.20;;;19.50;99.90;;;;;;4978706;28;20423;-74
2023/10/01 09:42:57;;;;;;;16.38;7.03;;;19.20;99.90;;;;;;4995385;28;20925;-74
2023/10/01 09:45:29;;;;;;;14.55;7.25;;;19.10;99.90;;;;;;4991542;28;20430;-74
2023/10/01 09:48:09;;;;;;;16.02;7.65;;;19.50;99.90;;;;;;4988503;28;20498;-74
2023/10/01 09:50:41;;;;;;;17.40;7.25;;;19.20;99.90;;;;;;4995245;28;20427;-73
2023/10/01 09:53:17;;;;;;;16.17;7.40;;;19.00;99.90;;;;;;4993808;28;20421;-74
2023/10/01 09:55:47;;;;;;;18.40;7.50;;;19.30;99.90;;;;;;4973303;28;20420;-74
2023/10/01 09:58:28;;;;;;;15.93;7.13;;;19.00;99.90;;;;;;4971033;28;20414;-74
2023/10/01 10:00:55;;;;;;;18.05;7.47;;;19.10;99.90;;;;;;4993620;28;20439;-74
2023/10/01 10:03:21;;;;;;;20.77;7.60;;;19.10;99.90;;;;;;4992591;28;20410;-74
2023/10/01 10:05:48;;;;;;;16.60;7.10;;;19.20;99.90;;;;;;4983056;28;20439;-74
2023/10/01 10:08:26;;;;;;;15.80;7.17;;;19.40;99.90;;;;;;4986569;28;20414;-75
2023/10/01 10:10:55;;;;;;;19.57;7.23;;;19.30;99.90;;;;;;5005464;28;20947;-74
2023/10/01 10:13:46;;;;;;;16.73;7.20;;;19.40;99.90;;;;;;4995205;28;20406;-74
2023/10/01 10:19:12;;;;;;;17.55;7.38;;;20.00;99.90;;;;;;4991652;28;20462;-75
2023/10/01 10:24:34;;;;;;;16.65;7.82;;;20.20;99.90;;;;;;4997162;28;20412;-74
2023/10/01 10:27:08;;;;;;;16.70;7.47;;;20.40;99.90;;;;;;5005076;28;20885;-74
2023/10/01 10:29:46;;;;;;;16.90;7.80;;;20.60;99.90;;;;;;4977533;28;20858;-74
2023/10/01 10:32:16;;;;;;;15.80;7.60;;;20.80;99.90;;;;;;4999348;28;20436;-74
2023/10/01 10:35:03;;;;;;;14.93;7.53;;;20.70;99.90;;;;;;4975055;28;20498;-73
2023/10/01 10:42:44;;;;;;;13.75;7.53;;;20.20;99.90;;;;;;5004802;28;20409;-73
2023/10/01 10:45:21;;;;;;;15.88;7.68;;;20.50;99.90;;;;;;4989816;28;20458;-73
2023/10/01 10:47:59;;;;;;;19.27;7.80;;;20.50;99.90;;;;;;4978366;28;20498;-73
2023/10/01 10:50:46;;;;;;;18.38;7.80;;;20.40;99.90;;;;;;4986424;28;20833;-74
2023/10/01 10:53:15;;;;;;;16.25;7.60;;;20.70;99.90;;;;;;4994603;28;20411;-73
2023/10/01 10:55:50;;;;;;;17.30;8.17;;;20.60;99.90;;;;;;4989896;28;20422;-73
2023/10/01 10:58:17;;;;;;;14.95;7.70;;;20.60;99.90;;;;;;4993008;28;20422;-73
2023/10/01 11:00:43;;;;;;;18.75;7.63;;;20.60;99.90;;;;;;4989932;28;20419;-73
2023/10/01 11:03:11;;;;;;;15.10;7.10;;;20.70;99.90;;;;;;4988830;28;20416;-74
2023/10/01 11:05:54;;;;;;;16.97;8.53;;;20.70;99.90;;;;;;4974457;28;20437;-73
2023/10/01 11:08:26;;;;;;;15.10;7.82;;;20.90;99.90;;;;;;4978546;28;20434;-74
2023/10/01 11:11:09;;;;;;;17.83;7.97;;;20.90;99.90;;;;;;4993007;28;20405;-74
2023/10/01 11:13:37;;;;;;;18.87;8.17;;;20.80;99.90;;;;;;4975461;28;20419;-74
2023/10/01 11:16:15;;;;;;;17.23;7.70;;;21.00;99.90;;;;;;4991435;28;20441;-74
2023/10/01 11:18:44;;;;;;;16.20;7.72;;;20.90;99.90;;;;;;4994223;28;20414;-74
2023/10/01 11:21:31;;;;;;;17.50;7.47;;;21.00;99.90;;;;;;5007364;28;20426;-73
2023/10/01 11:24:00;;;;;;;15.65;7.43;;;21.30;99.90;;;;;;5001314;28;20421;-74
2023/10/01 11:26:27;;;;;;;17.23;7.72;;;21.10;99.90;;;;;;5003850;28;20517;-74
2023/10/01 11:29:10;;;;;;;18.02;8.07;;;21.00;99.90;;;;;;4980274;28;20504;-74
2023/10/01 11:31:38;;;;;;;17.27;7.97;;;21.30;99.90;;;;;;4992087;28;20417;-74
2023/10/01 11:34:21;;;;;;;15.57;7.35;;;21.20;99.90;;;;;;4974864;28;20504;-73
2023/10/01 11:36:56;;;;;;;17.30;7.90;;;21.40;99.90;;;;;;5005441;28;20763;-73
2023/10/01 11:39:49;;;;;;;16.23;7.97;;;21.50;99.90;;;;;;5002458;28;20416;-74
2023/10/01 11:42:35;;;;;;;16.75;8.18;;;21.20;99.90;;;;;;4980391;28;20426;-74
2023/10/01 11:45:28;;;;;;;15.98;7.75;;;21.50;99.90;;;;;;4997880;28;20432;-74
2023/10/01 11:48:19;;;;;;;16.67;8.10;;;21.60;99.90;;;;;;5001961;28;20405;-74
2023/10/01 11:50:51;;;;;;;15.70;7.47;;;22.00;99.90;;;;;;4978602;28;20428;-74
2023/10/01 11:53:28;;;;;;;16.90;8.13;;;21.60;99.90;;;;;;4983990;28;20407;-75
2023/10/01 11:56:01;;;;;;;15.35;7.65;;;21.80;99.90;;;;;;4995050;28;20436;-74
2023/10/01 11:58:28;;;;;;;14.87;7.87;;;21.80;99.90;;;;;;4995698;28;20419;-75
2023/10/01 12:00:59;;;;;;;15.70;7.47;;;21.90;99.90;;;;;;4996685;28;20506;-74
2023/10/01 12:03:26;;;;;;;16.42;8.02;;;22.10;99.90;;;;;;4990728;28;20467;-75
2023/10/01 12:05:56;;;;;;;14.98;7.90;;;21.70;99.90;;;;;;4974878;28;20444;-75
2023/10/01 12:08:35;;;;;;;17.83;8.10;;;22.10;99.90;;;;;;4975805;28;20551;-75
2023/10/01 12:11:26;;;;;;;15.02;7.60;;;22.20;99.90;;;;;;4999860;28;20417;-74
2023/10/01 12:14:05;;;;;;;16.08;8.10;;;22.00;99.90;;;;;;4976854;28;20476;-74
2023/10/01 12:16:33;;;;;;;15.02;7.40;;;22.30;99.90;;;;;;4971229;28;20430;-74
2023/10/01 12:19:22;;;;;;;15.75;7.63;;;22.50;99.90;;;;;;4972609;28;20902;-74
2023/10/01 12:21:45;;;;;;;16.27;8.18;;;22.40;99.90;;;;;;4993989;28;20411;-75
2023/10/01 12:24:13;;;;;;;15.50;7.75;;;22.40;99.90;;;;;;4994231;28;20987;-74
2023/10/01 12:26:39;;;;;;;13.88;7.35;;;22.50;99.90;;;;;;5001851;28;20920;-75
2023/10/01 12:29:14;;;;;;;17.07;8.33;;;22.50;99.90;;;;;;4988724;28;20411;-75
2023/10/01 12:31:46;;;;;;;16.73;7.70;;;22.40;99.90;;;;;;4976748;28;20437;-74
2023/10/01 12:34:12;;;;;;;16.50;8.07;;;22.70;99.90;;;;;;5002280;28;20432;-74
2023/10/01 12:36:47;;;;;;;15.65;7.65;;;22.70;99.90;;;;;;4984272;28;20415;-74
2023/10/01 12:44:24;;;;;;;16.25;8.23;;;22.50;99.90;;;;;;5003253;28;20757;-74
2023/10/01 12:46:51;;;;;;;17.02;7.55;;;22.60;99.90;;;;;;5001723;28;20416;-74
2023/10/01 12:49:18;;;;;;;14.30;7.32;;;22.80;99.90;;;;;;4996389;28;20453;-75
2023/10/01 12:51:48;;;;;;;14.75;7.90;;;22.70;99.90;;;;;;4998954;28;20405;-75
2023/10/01 12:54:25;;;;;;;14.93;7.93;;;22.90;99.90;;;;;;4992414;28;20922;-75
2023/10/01 12:57:09;;;;;;;16.83;8.13;;;22.90;99.90;;;;;;4983021;28;20475;-74
2023/10/01 12:59:40;;;;;;;17.05;8.10;;;23.10;99.90;;;;;;4979638;28;20421;-76
2023/10/01 13:05:22;;;;;;;16.05;7.93;;;22.70;99.90;;;;;;4960879;28;20439;-75
2023/10/01 13:07:50;;;;;;;16.58;7.85;;;22.90;99.90;;;;;;4976285;28;20418;-75
2023/10/01 13:10:16;;;;;;;17.52;8.30;;;22.90;99.90;;;;;;4989306;28;20410;-75
2023/10/01 13:12:59;;;;;;;16.30;8.50;;;22.90;99.90;;;;;;5002358;28;20406;-75
2023/10/01 13:15:33;;;;;;;14.23;7.80;;;22.90;99.90;;;;;;4987962;28;20431;-76
2023/10/01 13:18:12;;;;;;;16.50;8.70;;;23.10;99.90;;;;;;4983660;28;20418;-75
2023/10/01 13:20:58;;;;;;;16.43;8.00;;;23.20;99.90;;;;;;4998293;28;20769;-76
2023/10/01 13:23:25;;;;;;;16.15;8.05;;;23.30;99.90;;;;;;4982997;28;20500;-75
2023/10/01 13:26:06;;;;;;;16.88;8.70;;;23.40;99.90;;;;;;4997514;28;20432;-74
2023/10/01 13:28:46;;;;;;;16.45;8.63;;;23.50;99.90;;;;;;4997818;28;20430;-76
2023/10/01 13:34:11;;;;;;;15.47;8.33;;;23.40;99.90;;;;;;4967161;28;20499;-75
2023/10/01 14:09:50;;;;;;;18.23;9.40;;;23.30;99.90;;;;;;5051863;28;20414;-75
2023/10/01 14:13:03;;;;;;;17.90;8.82;;;23.20;99.90;;;;;;4984347;28;20426;-74
2023/10/01 14:15:25;;;;;;;16.30;8.88;;;22.80;99.90;;;;;;4986062;28;20429;-76
2023/10/01 14:17:52;;;;;;;18.00;8.88;;;22.80;99.90;;;;;;5005386;28;20420;-75
2023/10/01 14:23:07;;;;;;;17.70;8.60;;;22.70;99.90;;;;;;4998281;28;20437;-76
2023/10/01 14:25:52;;;;;;;18.10;8.93;;;22.60;99.90;;;;;;4983916;28;20434;-76
2023/10/01 14:28:27;;;;;;;18.20;9.05;;;22.70;99.90;;;;;;4984150;28;20430;-75
2023/10/01 14:31:03;;;;;;;16.90;9.00;;;22.70;99.90;;;;;;4990470;28;20410;-76
2023/10/01 14:33:33;;;;;;;16.05;8.55;;;22.40;99.90;;;;;;4990336;28;20414;-75
2023/10/01 14:36:05;;;;;;;14.90;8.10;;;22.60;99.90;;;;;;4990361;28;20500;-75
2023/10/01 14:38:42;;;;;;;16.07;8.57;;;22.70;99.90;;;;;;4974294;28;20890;-74
2023/10/01 14:41:17;;;;;;;17.63;8.90;;;22.80;99.90;;;;;;5005239;28;20437;-75